sensor_id;sensor_type;location;lat;lon;timestamp;pressure;altitude;pressure_sealevel;temperature;humidity
40650;BME280;26342;42.826;23.992;2023-02-23T00:01:56;95252.31;;;3.13;100.00
40650;BME280;26342;42.826;23.992;2023-02-23T00:04:23;95243.66;;;3.06;100.00
40650;BME280;26342;42.826;23.992;2023-02-23T00:06:49;95247.72;;;3.08;100.00
40650;BME280;26342;42.826;23.992;2023-02-23T00:09:16;95243.25;;;3.09;100.00
40650;BME280;26342;42.826;23.992;2023-02-23T00:12:00;95244.06;;;3.10;100.00
40650;BME280;26342;42.826;23.992;2023-02-23T00:14:32;95244.41;;;3.13;100.00
40650;BME280;26342;42.826;23.992;2023-02-23T00:16:58;95238.34;;;3.13;100.00
40650;BME280;26342;42.826;23.992;2023-02-23T00:19:24;95242.81;;;3.12;100.00
40650;BME280;26342;42.826;23.992;2023-02-23T00:21:50;95247.81;;;3.20;100.00
40650;BME280;26342;42.826;23.992;2023-02-23T00:24:16;95250.09;;;3.17;100.00
40650;BME280;26342;42.826;23.992;2023-02-23T00:26:51;95240.59;;;3.09;100.00
40650;BME280;26342;42.826;23.992;2023-02-23T00:29:18;95248.66;;;3.14;100.00
40650;BME280;26342;42.826;23.992;2023-02-23T00:31:45;95247.25;;;3.18;100.00
40650;BME280;26342;42.826;23.992;2023-02-23T00:34:12;95238.38;;;3.06;100.00
40650;BME280;26342;42.826;23.992;2023-02-23T00:36:38;95237.44;;;3.00;100.00
40650;BME280;26342;42.826;23.992;2023-02-23T00:39:06;95254.84;;;3.01;100.00
40650;BME280;26342;42.826;23.992;2023-02-23T00:41:43;95244.38;;;2.88;100.00
40650;BME280;26342;42.826;23.992;2023-02-23T00:44:08;95245.19;;;2.89;100.00
40650;BME280;26342;42.826;23.992;2023-02-23T00:46:34;95243.75;;;2.93;100.00
40650;BME280;26342;42.826;23.992;2023-02-23T00:48:59;95225.34;;;2.86;100.00
40650;BME280;26342;42.826;23.992;2023-02-23T00:51:26;95231.56;;;2.92;100.00
40650;BME280;26342;42.826;23.992;2023-02-23T00:53:55;95237.03;;;2.97;100.00
40650;BME280;26342;42.826;23.992;2023-02-23T00:56:21;95235.22;;;2.91;100.00
40650;BME280;26342;42.826;23.992;2023-02-23T00:58:47;95221.84;;;2.92;100.00
40650;BME280;26342;42.826;23.992;2023-02-23T01:01:13;95232.34;;;2.99;100.00
40650;BME280;26342;42.826;23.992;2023-02-23T01:03:40;95235.63;;;2.94;100.00
40650;BME280;26342;42.826;23.992;2023-02-23T01:06:08;95233.00;;;2.94;100.00
40650;BME280;26342;42.826;23.992;2023-02-23T01:08:37;95228.94;;;2.92;100.00
40650;BME280;26342;42.826;23.992;2023-02-23T01:11:10;95231.63;;;2.85;100.00
40650;BME280;26342;42.826;23.992;2023-02-23T01:13:37;95230.69;;;2.73;100.00
40650;BME280;26342;42.826;23.992;2023-02-23T01:16:14;95229.44;;;2.75;100.00
40650;BME280;26342;42.826;23.992;2023-02-23T01:18:41;95230.25;;;2.76;100.00
40650;BME280;26342;42.826;23.992;2023-02-23T01:21:19;95229.88;;;2.72;100.00
40650;BME280;26342;42.826;23.992;2023-02-23T01:23:45;95227.84;;;2.68;100.00
40650;BME280;26342;42.826;23.992;2023-02-23T01:26:35;95226.66;;;2.70;100.00
40650;BME280;26342;42.826;23.992;2023-02-23T01:29:09;95223.63;;;2.67;100.00
40650;BME280;26342;42.826;23.992;2023-02-23T01:31:38;95220.16;;;2.66;100.00
40650;BME280;26342;42.826;23.992;2023-02-23T01:34:04;95218.78;;;2.64;100.00
40650;BME280;26342;42.826;23.992;2023-02-23T01:36:34;95221.63;;;2.62;100.00
40650;BME280;26342;42.826;23.992;2023-02-23T01:39:00;95206.47;;;2.51;100.00
40650;BME280;26342;42.826;23.992;2023-02-23T01:41:27;95219.41;;;2.59;100.00
40650;BME280;26342;42.826;23.992;2023-02-23T01:46:33;95206.34;;;2.33;100.00
40650;BME280;26342;42.826;23.992;2023-02-23T01:48:59;95215.91;;;2.27;100.00
40650;BME280;26342;42.826;23.992;2023-02-23T01:51:31;95208.44;;;2.24;100.00
40650;BME280;26342;42.826;23.992;2023-02-23T01:54:08;95216.91;;;2.33;100.00
40650;BME280;26342;42.826;23.992;2023-02-23T01:56:39;95214.47;;;2.31;100.00
40650;BME280;26342;42.826;23.992;2023-02-23T01:59:09;95194.03;;;2.20;100.00
40650;BME280;26342;42.826;23.992;2023-02-23T02:01:39;95204.63;;;2.13;100.00
40650;BME280;26342;42.826;23.992;2023-02-23T02:04:07;95205.38;;;2.20;100.00
40650;BME280;26342;42.826;23.992;2023-02-23T02:06:34;95210.00;;;2.38;100.00
40650;BME280;26342;42.826;23.992;2023-02-23T02:09:04;95212.44;;;2.33;100.00
40650;BME280;26342;42.826;23.992;2023-02-23T02:11:32;95211.41;;;2.34;100.00
40650;BME280;26342;42.826;23.992;2023-02-23T02:14:18;95208.56;;;2.36;100.00
40650;BME280;26342;42.826;23.992;2023-02-23T02:25:40;95219.91;;;2.36;100.00
40650;BME280;26342;42.826;23.992;2023-02-23T02:42:26;95210.41;;;2.29;100.00
40650;BME280;26342;42.826;23.992;2023-02-23T02:47:27;95214.88;;;2.28;100.00
40650;BME280;26342;42.826;23.992;2023-02-23T02:50:19;95212.47;;;2.27;100.00
40650;BME280;26342;42.826;23.992;2023-02-23T02:52:52;95221.81;;;2.22;100.00
40650;BME280;26342;42.826;23.992;2023-02-23T02:55:23;95213.09;;;2.22;100.00
40650;BME280;26342;42.826;23.992;2023-02-23T02:57:52;95211.75;;;2.06;100.00
40650;BME280;26342;42.826;23.992;2023-02-23T03:00:27;95217.16;;;2.11;100.00
40650;BME280;26342;42.826;23.992;2023-02-23T03:03:28;95220.84;;;2.04;100.00
40650;BME280;26342;42.826;23.992;2023-02-23T03:06:14;95230.19;;;2.00;100.00
40650;BME280;26342;42.826;23.992;2023-02-23T03:09:19;95225.75;;;1.80;100.00
40650;BME280;26342;42.826;23.992;2023-02-23T03:12:40;95223.53;;;1.77;100.00
40650;BME280;26342;42.826;23.992;2023-02-23T03:15:50;95222.53;;;1.72;100.00
40650;BME280;26342;42.826;23.992;2023-02-23T03:19:07;95228.81;;;1.71;100.00
40650;BME280;26342;42.826;23.992;2023-02-23T03:21:58;95233.69;;;1.47;100.00
40650;BME280;26342;42.826;23.992;2023-02-23T03:24:56;95236.31;;;1.40;100.00
40650;BME280;26342;42.826;23.992;2023-02-23T03:27:53;95231.47;;;1.37;100.00
40650;BME280;26342;42.826;23.992;2023-02-23T03:30:45;95227.22;;;1.43;100.00
40650;BME280;26342;42.826;23.992;2023-02-23T03:36:57;95230.47;;;1.45;100.00
40650;BME280;26342;42.826;23.992;2023-02-23T03:39:52;95233.47;;;1.49;100.00
40650;BME280;26342;42.826;23.992;2023-02-23T03:42:39;95222.78;;;1.37;100.00
40650;BME280;26342;42.826;23.992;2023-02-23T03:45:25;95219.53;;;1.42;100.00
40650;BME280;26342;42.826;23.992;2023-02-23T03:48:12;95228.03;;;1.50;100.00
40650;BME280;26342;42.826;23.992;2023-02-23T03:51:02;95226.22;;;1.51;100.00
40650;BME280;26342;42.826;23.992;2023-02-23T03:54:18;95237.72;;;1.50;100.00
40650;BME280;26342;42.826;23.992;2023-02-23T03:57:07;95231.28;;;1.52;100.00
40650;BME280;26342;42.826;23.992;2023-02-23T03:59:56;95222.97;;;1.55;100.00
40650;BME280;26342;42.826;23.992;2023-02-23T04:02:43;95231.44;;;1.64;100.00
40650;BME280;26342;42.826;23.992;2023-02-23T04:05:30;95240.78;;;1.66;100.00
40650;BME280;26342;42.826;23.992;2023-02-23T04:08:18;95231.66;;;1.56;100.00
40650;BME280;26342;42.826;23.992;2023-02-23T04:11:14;95243.56;;;1.72;100.00
40650;BME280;26342;42.826;23.992;2023-02-23T04:14:04;95237.72;;;1.70;100.00
40650;BME280;26342;42.826;23.992;2023-02-23T04:16:32;95247.44;;;1.69;100.00
40650;BME280;26342;42.826;23.992;2023-02-23T04:18:58;95239.34;;;1.71;100.00
40650;BME280;26342;42.826;23.992;2023-02-23T04:21:24;95243.56;;;1.78;100.00
40650;BME280;26342;42.826;23.992;2023-02-23T04:23:49;95243.19;;;1.68;100.00
40650;BME280;26342;42.826;23.992;2023-02-23T04:26:14;95250.06;;;1.62;100.00
40650;BME280;26342;42.826;23.992;2023-02-23T04:28:40;95243.78;;;1.70;100.00
40650;BME280;26342;42.826;23.992;2023-02-23T04:31:05;95250.88;;;1.76;100.00
40650;BME280;26342;42.826;23.992;2023-02-23T04:33:31;95252.47;;;1.71;100.00
40650;BME280;26342;42.826;23.992;2023-02-23T04:35:56;95255.31;;;1.62;100.00
40650;BME280;26342;42.826;23.992;2023-02-23T04:38:22;95261.19;;;1.58;100.00
40650;BME280;26342;42.826;23.992;2023-02-23T04:40:48;95270.91;;;1.44;100.00
40650;BME280;26342;42.826;23.992;2023-02-23T04:43:14;95255.94;;;1.31;100.00
40650;BME280;26342;42.826;23.992;2023-02-23T04:45:39;95270.09;;;1.24;100.00
40650;BME280;26342;42.826;23.992;2023-02-23T04:48:05;95270.06;;;1.17;100.00
40650;BME280;26342;42.826;23.992;2023-02-23T04:50:30;95270.88;;;1.04;100.00
40650;BME280;26342;42.826;23.992;2023-02-23T04:52:56;95279.16;;;1.08;100.00
40650;BME280;26342;42.826;23.992;2023-02-23T04:55:23;95276.75;;;1.06;100.00
40650;BME280;26342;42.826;23.992;2023-02-23T04:57:50;95280.75;;;1.02;100.00
40650;BME280;26342;42.826;23.992;2023-02-23T05:00:17;95276.34;;;1.03;100.00
40650;BME280;26342;42.826;23.992;2023-02-23T05:02:43;95288.88;;;1.07;100.00
40650;BME280;26342;42.826;23.992;2023-02-23T05:05:10;95285.22;;;1.08;100.00
40650;BME280;26342;42.826;23.992;2023-02-23T05:07:36;95283.63;;;1.14;100.00
40650;BME280;26342;42.826;23.992;2023-02-23T05:10:04;95289.72;;;1.21;100.00
40650;BME280;26342;42.826;23.992;2023-02-23T05:12:30;95282.19;;;1.18;100.00
40650;BME280;26342;42.826;23.992;2023-02-23T05:14:56;95297.78;;;1.20;100.00
40650;BME280;26342;42.826;23.992;2023-02-23T05:17:22;95290.50;;;1.15;100.00
40650;BME280;26342;42.826;23.992;2023-02-23T05:19:47;95290.88;;;0.99;100.00
40650;BME280;26342;42.826;23.992;2023-02-23T05:22:13;95297.53;;;0.95;100.00
40650;BME280;26342;42.826;23.992;2023-02-23T05:24:39;95302.97;;;0.87;100.00
40650;BME280;26342;42.826;23.992;2023-02-23T05:27:05;95295.28;;;0.85;100.00
40650;BME280;26342;42.826;23.992;2023-02-23T05:29:31;95298.13;;;0.90;100.00
40650;BME280;26342;42.826;23.992;2023-02-23T05:31:56;95303.78;;;0.94;100.00
40650;BME280;26342;42.826;23.992;2023-02-23T05:34:21;95315.50;;;0.91;100.00
40650;BME280;26342;42.826;23.992;2023-02-23T05:36:47;95311.28;;;0.97;100.00
40650;BME280;26342;42.826;23.992;2023-02-23T05:39:12;95312.94;;;1.04;100.00
40650;BME280;26342;42.826;23.992;2023-02-23T05:41:37;95319.22;;;1.17;100.00
40650;BME280;26342;42.826;23.992;2023-02-23T05:44:03;95328.13;;;1.29;100.00
40650;BME280;26342;42.826;23.992;2023-02-23T05:46:28;95325.53;;;1.35;100.00
40650;BME280;26342;42.826;23.992;2023-02-23T05:48:56;95338.28;;;1.45;100.00
40650;BME280;26342;42.826;23.992;2023-02-23T05:51:23;95342.53;;;1.53;100.00
40650;BME280;26342;42.826;23.992;2023-02-23T05:53:49;95337.66;;;1.56;100.00
40650;BME280;26342;42.826;23.992;2023-02-23T05:56:16;95344.53;;;1.64;100.00
40650;BME280;26342;42.826;23.992;2023-02-23T05:58:46;95346.59;;;1.68;100.00
40650;BME280;26342;42.826;23.992;2023-02-23T06:01:12;95355.88;;;1.71;100.00
40650;BME280;26342;42.826;23.992;2023-02-23T06:03:37;95346.78;;;1.67;100.00
40650;BME280;26342;42.826;23.992;2023-02-23T06:06:03;95352.44;;;1.77;100.00
40650;BME280;26342;42.826;23.992;2023-02-23T06:08:29;95353.47;;;1.83;100.00
40650;BME280;26342;42.826;23.992;2023-02-23T06:10:54;95350.03;;;1.82;100.00
40650;BME280;26342;42.826;23.992;2023-02-23T06:13:20;95355.28;;;1.89;100.00
40650;BME280;26342;42.826;23.992;2023-02-23T06:15:46;95355.69;;;1.86;100.00
40650;BME280;26342;42.826;23.992;2023-02-23T06:18:11;95356.50;;;1.86;100.00
40650;BME280;26342;42.826;23.992;2023-02-23T06:20:37;95358.72;;;1.89;100.00
40650;BME280;26342;42.826;23.992;2023-02-23T06:23:03;95359.13;;;1.86;100.00
40650;BME280;26342;42.826;23.992;2023-02-23T06:25:29;95360.75;;;1.87;100.00
40650;BME280;26342;42.826;23.992;2023-02-23T06:27:54;95362.34;;;1.95;100.00
40650;BME280;26342;42.826;23.992;2023-02-23T06:30:20;95364.19;;;2.01;100.00
40650;BME280;26342;42.826;23.992;2023-02-23T06:32:45;95356.88;;;2.03;100.00
40650;BME280;26342;42.826;23.992;2023-02-23T06:35:11;95364.78;;;2.10;100.00
40650;BME280;26342;42.826;23.992;2023-02-23T06:37:37;95370.47;;;2.13;100.00
40650;BME280;26342;42.826;23.992;2023-02-23T06:40:03;95371.06;;;2.15;100.00
40650;BME280;26342;42.826;23.992;2023-02-23T06:42:29;95366.19;;;2.19;100.00
40650;BME280;26342;42.826;23.992;2023-02-23T06:44:54;95366.19;;;2.19;100.00
40650;BME280;26342;42.826;23.992;2023-02-23T06:47:20;95366.59;;;2.16;100.00
40650;BME280;26342;42.826;23.992;2023-02-23T06:49:45;95366.59;;;2.29;100.00
40650;BME280;26342;42.826;23.992;2023-02-23T06:52:12;95362.31;;;2.28;100.00
40650;BME280;26342;42.826;23.992;2023-02-23T06:54:39;95359.88;;;2.33;100.00
40650;BME280;26342;42.826;23.992;2023-02-23T06:57:06;95343.28;;;2.26;100.00
40650;BME280;26342;42.826;23.992;2023-02-23T06:59:31;95359.25;;;2.51;100.00
40650;BME280;26342;42.826;23.992;2023-02-23T07:01:56;95361.63;;;2.72;100.00
40650;BME280;26342;42.826;23.992;2023-02-23T07:04:22;95353.22;;;2.95;100.00
40650;BME280;26342;42.826;23.992;2023-02-23T07:06:47;95349.03;;;3.19;100.00
40650;BME280;26342;42.826;23.992;2023-02-23T07:09:13;95343.06;;;3.37;100.00
40650;BME280;26342;42.826;23.992;2023-02-23T07:11:40;95344.28;;;3.66;100.00
40650;BME280;26342;42.826;23.992;2023-02-23T07:14:07;95342.03;;;3.95;100.00
40650;BME280;26342;42.826;23.992;2023-02-23T07:16:34;95344.00;;;4.24;100.00
40650;BME280;26342;42.826;23.992;2023-02-23T07:19:01;95338.19;;;4.59;100.00
40650;BME280;26342;42.826;23.992;2023-02-23T07:21:28;95340.06;;;4.88;100.00
40650;BME280;26342;42.826;23.992;2023-02-23T07:23:53;95323.50;;;5.11;100.00
40650;BME280;26342;42.826;23.992;2023-02-23T07:26:19;95331.47;;;5.41;100.00
40650;BME280;26342;42.826;23.992;2023-02-23T07:28:44;95336.16;;;5.69;100.00
40650;BME280;26342;42.826;23.992;2023-02-23T07:31:09;95320.69;;;5.96;100.00
40650;BME280;26342;42.826;23.992;2023-02-23T07:33:35;95329.22;;;6.22;100.00
40650;BME280;26342;42.826;23.992;2023-02-23T07:36:00;95327.94;;;6.48;100.00
40650;BME280;26342;42.826;23.992;2023-02-23T07:38:26;95327.44;;;6.74;100.00
40650;BME280;26342;42.826;23.992;2023-02-23T07:40:51;95324.81;;;7.03;100.00
40650;BME280;26342;42.826;23.992;2023-02-23T07:43:17;95322.09;;;7.26;100.00
40650;BME280;26342;42.826;23.992;2023-02-23T07:45:47;95320.38;;;7.48;100.00
40650;BME280;26342;42.826;23.992;2023-02-23T07:48:12;95328.78;;;7.74;100.00
40650;BME280;26342;42.826;23.992;2023-02-23T07:50:38;95326.75;;;7.93;100.00
40650;BME280;26342;42.826;23.992;2023-02-23T07:53:04;95316.59;;;8.06;100.00
40650;BME280;26342;42.826;23.992;2023-02-23T07:55:31;95309.47;;;8.29;100.00
40650;BME280;26342;42.826;23.992;2023-02-23T07:57:56;95309.47;;;8.62;100.00
40650;BME280;26342;42.826;23.992;2023-02-23T08:00:22;95326.06;;;8.91;100.00
40650;BME280;26342;42.826;23.992;2023-02-23T08:02:49;95319.50;;;9.21;100.00
40650;BME280;26342;42.826;23.992;2023-02-23T08:05:14;95321.94;;;9.49;100.00
40650;BME280;26342;42.826;23.992;2023-02-23T08:07:40;95323.53;;;9.77;100.00
40650;BME280;26342;42.826;23.992;2023-02-23T08:10:05;95323.00;;;10.07;100.00
40650;BME280;26342;42.826;23.992;2023-02-23T08:12:31;95314.41;;;10.32;100.00
40650;BME280;26342;42.826;23.992;2023-02-23T08:14:58;95321.50;;;10.54;100.00
40650;BME280;26342;42.826;23.992;2023-02-23T08:17:23;95317.59;;;10.72;100.00
40650;BME280;26342;42.826;23.992;2023-02-23T08:19:49;95319.59;;;10.97;100.00
40650;BME280;26342;42.826;23.992;2023-02-23T08:22:14;95305.53;;;11.16;100.00
40650;BME280;26342;42.826;23.992;2023-02-23T08:24:40;95303.44;;;11.29;100.00
40650;BME280;26342;42.826;23.992;2023-02-23T08:27:05;95308.03;;;11.43;100.00
40650;BME280;26342;42.826;23.992;2023-02-23T08:29:30;95302.44;;;11.60;100.00
40650;BME280;26342;42.826;23.992;2023-02-23T08:31:56;95307.81;;;11.75;100.00
40650;BME280;26342;42.826;23.992;2023-02-23T08:34:22;95302.53;;;11.81;100.00
40650;BME280;26342;42.826;23.992;2023-02-23T08:36:48;95313.78;;;11.93;100.00
40650;BME280;26342;42.826;23.992;2023-02-23T08:39:14;95295.59;;;11.95;100.00
40650;BME280;26342;42.826;23.992;2023-02-23T08:41:39;95306.00;;;12.27;100.00
40650;BME280;26342;42.826;23.992;2023-02-23T08:44:05;95309.72;;;12.51;100.00
40650;BME280;26342;42.826;23.992;2023-02-23T08:46:31;95305.94;;;12.68;100.00
40650;BME280;26342;42.826;23.992;2023-02-23T08:48:56;95303.78;;;12.70;99.28
40650;BME280;26342;42.826;23.992;2023-02-23T08:51:22;95310.72;;;12.96;100.00
40650;BME280;26342;42.826;23.992;2023-02-23T08:53:47;95308.50;;;13.08;99.14
40650;BME280;26342;42.826;23.992;2023-02-23T08:56:13;95309.47;;;13.43;100.00
40650;BME280;26342;42.826;23.992;2023-02-23T08:58:39;95304.91;;;13.88;94.29
40650;BME280;26342;42.826;23.992;2023-02-23T09:01:05;95310.66;;;14.10;91.68
40650;BME280;26342;42.826;23.992;2023-02-23T09:03:31;95296.41;;;14.44;88.65
40650;BME280;26342;42.826;23.992;2023-02-23T09:06:04;95316.63;;;14.70;85.69
40650;BME280;26342;42.826;23.992;2023-02-23T09:08:30;95303.94;;;15.00;79.51
40650;BME280;26342;42.826;23.992;2023-02-23T09:10:55;95305.72;;;15.10;88.36
40650;BME280;26342;42.826;23.992;2023-02-23T09:13:20;95303.56;;;15.30;77.32
40650;BME280;26342;42.826;23.992;2023-02-23T09:15:46;95298.25;;;15.49;80.00
40650;BME280;26342;42.826;23.992;2023-02-23T09:18:12;95299.44;;;15.81;72.45
40650;BME280;26342;42.826;23.992;2023-02-23T09:20:43;95302.19;;;15.95;75.87
40650;BME280;26342;42.826;23.992;2023-02-23T09:23:09;95303.19;;;16.17;68.67
40650;BME280;26342;42.826;23.992;2023-02-23T09:25:39;95297.50;;;16.19;69.68
40650;BME280;26342;42.826;23.992;2023-02-23T09:28:10;95300.06;;;16.29;68.32
40650;BME280;26342;42.826;23.992;2023-02-23T09:30:36;95302.69;;;16.48;64.69
40650;BME280;26342;42.826;23.992;2023-02-23T09:33:03;95307.16;;;16.39;68.53
40650;BME280;26342;42.826;23.992;2023-02-23T09:35:28;95300.91;;;16.43;73.42
40650;BME280;26342;42.826;23.992;2023-02-23T09:37:54;95295.44;;;16.62;62.45
40650;BME280;26342;42.826;23.992;2023-02-23T09:40:26;95301.56;;;16.68;63.58
40650;BME280;26342;42.826;23.992;2023-02-23T09:45:34;95304.19;;;16.87;58.40
40650;BME280;26342;42.826;23.992;2023-02-23T09:48:08;95298.84;;;17.00;61.23
40650;BME280;26342;42.826;23.992;2023-02-23T09:50:36;95290.00;;;16.81;61.96
40650;BME280;26342;42.826;23.992;2023-02-23T09:53:06;95294.19;;;16.73;60.47
40650;BME280;26342;42.826;23.992;2023-02-23T09:55:39;95294.50;;;16.72;62.13
40650;BME280;26342;42.826;23.992;2023-02-23T09:58:11;95293.13;;;16.88;59.37
40650;BME280;26342;42.826;23.992;2023-02-23T10:00:45;95292.44;;;17.10;58.20
40650;BME280;26342;42.826;23.992;2023-02-23T10:03:34;95292.44;;;17.24;56.11
40650;BME280;26342;42.826;23.992;2023-02-23T10:06:05;95296.44;;;17.26;57.59
40650;BME280;26342;42.826;23.992;2023-02-23T10:11:39;95291.44;;;17.34;56.36
40650;BME280;26342;42.826;23.992;2023-02-23T10:16:59;95290.41;;;17.29;56.18
40650;BME280;26342;42.826;23.992;2023-02-23T10:19:43;95285.53;;;17.32;54.39
40650;BME280;26342;42.826;23.992;2023-02-23T10:22:13;95276.84;;;17.21;55.33
40650;BME280;26342;42.826;23.992;2023-02-23T10:24:47;95282.53;;;17.33;53.77
40650;BME280;26342;42.826;23.992;2023-02-23T10:27:20;95290.53;;;17.38;54.00
40650;BME280;26342;42.826;23.992;2023-02-23T10:29:53;95282.78;;;17.59;55.17
40650;BME280;26342;42.826;23.992;2023-02-23T10:32:37;95280.09;;;17.59;53.75
40650;BME280;26342;42.826;23.992;2023-02-23T10:35:12;95278.28;;;17.68;53.44
40650;BME280;26342;42.826;23.992;2023-02-23T10:37:38;95272.94;;;17.41;54.03
40650;BME280;26342;42.826;23.992;2023-02-23T10:40:04;95277.31;;;17.50;55.48
40650;BME280;26342;42.826;23.992;2023-02-23T10:42:30;95271.09;;;17.64;52.04
40650;BME280;26342;42.826;23.992;2023-02-23T10:44:59;95275.25;;;17.47;53.58
40650;BME280;26342;42.826;23.992;2023-02-23T10:47:28;95275.94;;;17.25;54.13
40650;BME280;26342;42.826;23.992;2023-02-23T10:49:56;95273.47;;;17.15;54.39
40650;BME280;26342;42.826;23.992;2023-02-23T10:54:49;95262.66;;;17.29;55.14
40650;BME280;26342;42.826;23.992;2023-02-23T10:57:41;95271.06;;;17.27;54.98
40650;BME280;26342;42.826;23.992;2023-02-23T11:02:35;95264.28;;;17.30;55.13
40650;BME280;26342;42.826;23.992;2023-02-23T11:05:02;95266.66;;;17.18;55.15
40650;BME280;26342;42.826;23.992;2023-02-23T11:07:32;95265.34;;;17.29;54.90
40650;BME280;26342;42.826;23.992;2023-02-23T11:09:59;95255.19;;;17.26;54.99
40650;BME280;26342;42.826;23.992;2023-02-23T11:12:42;95255.50;;;17.11;56.28
40650;BME280;26342;42.826;23.992;2023-02-23T11:17:54;95258.47;;;16.95;54.94
40650;BME280;26342;42.826;23.992;2023-02-23T11:20:38;95250.00;;;16.88;57.12
40650;BME280;26342;42.826;23.992;2023-02-23T11:25:43;95251.00;;;16.79;55.20
40650;BME280;26342;42.826;23.992;2023-02-23T11:28:23;95250.09;;;16.69;56.53
40650;BME280;26342;42.826;23.992;2023-02-23T11:30:51;95247.94;;;16.66;55.34
40650;BME280;26342;42.826;23.992;2023-02-23T11:33:24;95248.56;;;16.63;57.67
40650;BME280;26342;42.826;23.992;2023-02-23T11:36:13;95250.84;;;16.56;58.14
40650;BME280;26342;42.826;23.992;2023-02-23T11:38:39;95242.53;;;16.39;58.14
40650;BME280;26342;42.826;23.992;2023-02-23T11:41:17;95249.22;;;16.41;58.54
40650;BME280;26342;42.826;23.992;2023-02-23T11:43:58;95256.50;;;16.41;56.45
40650;BME280;26342;42.826;23.992;2023-02-23T11:46:25;95257.78;;;16.30;58.04
40650;BME280;26342;42.826;23.992;2023-02-23T11:48:52;95265.81;;;16.16;60.41
40650;BME280;26342;42.826;23.992;2023-02-23T11:51:23;95255.28;;;16.01;58.29
40650;BME280;26342;42.826;23.992;2023-02-23T11:53:50;95256.91;;;15.83;61.24
40650;BME280;26342;42.826;23.992;2023-02-23T11:56:20;95246.66;;;15.66;60.80
40650;BME280;26342;42.826;23.992;2023-02-23T11:58:50;95261.00;;;15.80;60.48
40650;BME280;26342;42.826;23.992;2023-02-23T12:01:42;95239.16;;;15.82;60.94
40650;BME280;26342;42.826;23.992;2023-02-23T12:04:29;95257.25;;;15.95;59.73
40650;BME280;26342;42.826;23.992;2023-02-23T12:07:24;95255.50;;;15.85;60.49
40650;BME280;26342;42.826;23.992;2023-02-23T12:10:31;95255.75;;;15.89;61.18
40650;BME280;26342;42.826;23.992;2023-02-23T12:16:25;95247.00;;;15.78;60.50
40650;BME280;26342;42.826;23.992;2023-02-23T12:18:59;95253.03;;;15.70;61.38
40650;BME280;26342;42.826;23.992;2023-02-23T12:21:43;95261.25;;;15.60;61.95
40650;BME280;26342;42.826;23.992;2023-02-23T12:24:18;95261.09;;;15.51;63.19
40650;BME280;26342;42.826;23.992;2023-02-23T12:29:47;95258.81;;;15.40;63.62
40650;BME280;26342;42.826;23.992;2023-02-23T12:35:10;95268.13;;;15.28;63.39
40650;BME280;26342;42.826;23.992;2023-02-23T12:37:48;95259.56;;;15.26;64.75
40650;BME280;26342;42.826;23.992;2023-02-23T12:40:25;95268.56;;;15.35;64.41
40650;BME280;26342;42.826;23.992;2023-02-23T12:48:29;95273.38;;;15.15;66.24
40650;BME280;26342;42.826;23.992;2023-02-23T12:50:52;95275.38;;;15.09;66.57
40650;BME280;26342;42.826;23.992;2023-02-23T12:53:33;95273.31;;;15.01;66.07
40650;BME280;26342;42.826;23.992;2023-02-23T13:07:41;95286.38;;;13.91;72.31
40650;BME280;26342;42.826;23.992;2023-02-23T13:10:19;95286.97;;;13.83;73.63
40650;BME280;26342;42.826;23.992;2023-02-23T13:20:19;95289.56;;;13.54;75.17
40650;BME280;26342;42.826;23.992;2023-02-23T13:28:17;95298.25;;;13.36;75.55
40650;BME280;26342;42.826;23.992;2023-02-23T13:30:44;95301.22;;;13.29;77.18
40650;BME280;26342;42.826;23.992;2023-02-23T13:33:23;95297.78;;;13.13;77.27
40650;BME280;26342;42.826;23.992;2023-02-23T13:35:49;95286.78;;;13.10;77.34
40650;BME280;26342;42.826;23.992;2023-02-23T13:38:33;95294.88;;;12.95;78.43
40650;BME280;26342;42.826;23.992;2023-02-23T13:52:15;95310.53;;;12.37;80.75
40650;BME280;26342;42.826;23.992;2023-02-23T13:54:56;95321.78;;;12.44;81.01
40650;BME280;26342;42.826;23.992;2023-02-23T13:57:23;95321.25;;;12.32;80.50
40650;BME280;26342;42.826;23.992;2023-02-23T13:59:51;95331.97;;;12.26;81.55
40650;BME280;26342;42.826;23.992;2023-02-23T14:02:36;95334.09;;;12.29;81.67
40650;BME280;26342;42.826;23.992;2023-02-23T14:05:16;95339.72;;;12.13;82.31
40650;BME280;26342;42.826;23.992;2023-02-23T14:07:45;95332.19;;;11.89;83.56
40650;BME280;26342;42.826;23.992;2023-02-23T14:20:54;95344.91;;;11.52;86.01
40650;BME280;26342;42.826;23.992;2023-02-23T14:26:09;95351.00;;;11.32;87.73
40650;BME280;26342;42.826;23.992;2023-02-23T14:28:41;95353.38;;;11.23;90.48
40650;BME280;26342;42.826;23.992;2023-02-23T14:41:54;95348.00;;;11.18;91.14
40650;BME280;26342;42.826;23.992;2023-02-23T14:47:01;95356.25;;;11.11;91.59
40650;BME280;26342;42.826;23.992;2023-02-23T14:49:27;95354.38;;;11.07;91.08
40650;BME280;26342;42.826;23.992;2023-02-23T14:51:57;95354.84;;;10.94;92.33
40650;BME280;26342;42.826;23.992;2023-02-23T14:54:33;95359.16;;;11.00;91.25
40650;BME280;26342;42.826;23.992;2023-02-23T14:57:02;95356.94;;;10.86;92.52
40650;BME280;26342;42.826;23.992;2023-02-23T14:59:36;95357.69;;;10.82;93.31
40650;BME280;26342;42.826;23.992;2023-02-23T15:02:17;95352.63;;;10.80;92.14
40650;BME280;26342;42.826;23.992;2023-02-23T15:04:42;95365.38;;;10.73;92.93
40650;BME280;26342;42.826;23.992;2023-02-23T15:07:17;95363.47;;;10.63;93.39
40650;BME280;26342;42.826;23.992;2023-02-23T15:09:50;95370.13;;;10.61;95.19
40650;BME280;26342;42.826;23.992;2023-02-23T15:12:25;95376.69;;;10.48;96.11
40650;BME280;26342;42.826;23.992;2023-02-23T15:14:56;95365.75;;;10.50;95.57
40650;BME280;26342;42.826;23.992;2023-02-23T15:17:25;95371.09;;;10.50;95.99
40650;BME280;26342;42.826;23.992;2023-02-23T15:19:57;95365.75;;;10.50;95.51